Time;durP1;ratioP1;P1;durP2;ratioP2;P2;SDS_P1;SDS_P2;PMS_P1;PMS_P2;Temp;Humidity;BMP_temperature;BMP_pressure;BME280_temperature;BME280_humidity;BME280_pressure;Samples;Min_cycle;Max_cycle;Signal;HPM_P1;HPM_P2
2023/01/23 00:02:20;;;;;;;12.70;5.93;;;3.40;99.90;;;;;;5092135;28;20048;-81
2023/01/23 00:04:45;;;;;;;12.03;5.87;;;3.40;99.90;;;;;;5074296;28;20476;-81
2023/01/23 00:07:11;;;;;;;15.73;6.23;;;3.40;99.90;;;;;;5074569;28;20040;-81
2023/01/23 00:09:37;;;;;;;14.33;6.77;;;3.40;99.90;;;;;;5074975;28;20051;-81
2023/01/23 00:12:04;;;;;;;17.03;7.17;;;3.40;99.90;;;;;;5074611;28;20793;-81
2023/01/23 00:14:30;;;;;;;18.42;6.43;;;3.40;99.90;;;;;;5074805;28;20056;-81
2023/01/23 00:16:55;;;;;;;15.70;6.50;;;3.40;99.90;;;;;;5091453;28;20445;-81
2023/01/23 00:19:21;;;;;;;13.17;5.90;;;3.30;99.90;;;;;;5091394;28;20043;-81
2023/01/23 00:21:47;;;;;;;14.97;6.43;;;3.40;99.90;;;;;;5074607;28;20048;-82
2023/01/23 00:24:13;;;;;;;14.87;6.10;;;3.40;99.90;;;;;;5091262;28;20488;-82
2023/01/23 00:26:39;;;;;;;17.30;6.33;;;3.40;99.90;;;;;;5091663;28;20055;-82
2023/01/23 00:29:04;;;;;;;13.77;7.10;;;3.40;99.90;;;;;;5108383;28;20866;-82
2023/01/23 00:31:33;;;;;;;13.37;6.30;;;3.40;99.90;;;;;;5091619;28;20404;-82
2023/01/23 00:34:02;;;;;;;15.90;6.57;;;3.40;99.90;;;;;;5091242;28;20051;-82
2023/01/23 00:36:30;;;;;;;18.42;6.82;;;3.40;99.90;;;;;;5074931;28;20056;-81
2023/01/23 00:38:56;;;;;;;14.98;6.35;;;3.40;99.90;;;;;;5091184;28;20044;-81
2023/01/23 00:41:22;;;;;;;16.15;6.72;;;3.40;99.90;;;;;;5074706;28;20040;-81
2023/01/23 00:43:50;;;;;;;15.30;5.93;;;3.40;99.90;;;;;;5091046;28;20078;-82
2023/01/23 00:46:17;;;;;;;15.85;6.68;;;3.50;99.90;;;;;;5075024;28;20278;-81
2023/01/23 00:48:42;;;;;;;12.38;5.78;;;3.40;99.90;;;;;;5078150;28;20052;-81
2023/01/23 00:51:08;;;;;;;15.63;6.40;;;3.40;99.90;;;;;;5061311;28;20051;-81
2023/01/23 00:53:34;;;;;;;13.03;5.53;;;3.40;99.90;;;;;;5061143;28;20062;-81
2023/01/23 00:55:59;;;;;;;14.63;6.33;;;3.40;99.90;;;;;;5061126;28;20130;-81
2023/01/23 00:58:25;;;;;;;14.53;6.33;;;3.40;99.90;;;;;;5078066;28;20044;-81
2023/01/23 01:00:51;;;;;;;17.93;6.30;;;3.40;99.90;;;;;;5094495;28;20134;-82
2023/01/23 01:03:18;;;;;;;13.03;6.00;;;3.40;99.90;;;;;;5094302;28;20063;-81
2023/01/23 01:05:43;;;;;;;16.00;5.88;;;3.40;99.90;;;;;;5094747;28;20059;-81
2023/01/23 01:08:09;;;;;;;12.37;6.07;;;3.40;99.90;;;;;;5095413;28;20048;-80
2023/01/23 01:10:35;;;;;;;15.90;5.93;;;3.40;99.90;;;;;;5094652;28;20071;-80
2023/01/23 01:13:02;;;;;;;11.47;5.57;;;3.40;99.90;;;;;;5077167;28;20067;-81
2023/01/23 01:15:28;;;;;;;19.42;6.95;;;3.40;99.90;;;;;;5095338;28;20508;-81
2023/01/23 01:17:55;;;;;;;10.98;6.03;;;3.40;99.90;;;;;;5060708;28;20080;-81
2023/01/23 01:20:22;;;;;;;14.85;6.03;;;3.40;99.90;;;;;;5094544;28;20377;-80
2023/01/23 01:22:48;;;;;;;14.73;6.20;;;3.40;99.90;;;;;;5094319;28;20506;-81
2023/01/23 01:25:14;;;;;;;15.75;6.53;;;3.40;99.90;;;;;;5060523;28;20504;-81
2023/01/23 01:27:40;;;;;;;16.33;6.33;;;3.40;99.90;;;;;;5094445;28;20106;-81
2023/01/23 01:30:06;;;;;;;16.57;6.80;;;3.40;99.90;;;;;;5077235;28;20052;-81
2023/01/23 01:32:36;;;;;;;11.27;5.88;;;3.40;99.90;;;;;;5094223;28;20047;-81
2023/01/23 01:35:03;;;;;;;14.57;6.47;;;3.30;99.90;;;;;;5094896;28;20036;-82
2023/01/23 01:37:35;;;;;;;13.57;6.35;;;3.40;99.90;;;;;;5094084;28;20106;-81
2023/01/23 01:40:02;;;;;;;17.23;7.60;;;3.40;99.90;;;;;;5093644;28;20438;-82
2023/01/23 01:42:28;;;;;;;13.45;6.80;;;3.40;99.90;;;;;;5076832;28;20116;-81
2023/01/23 01:45:01;;;;;;;11.77;6.43;;;3.40;99.90;;;;;;5110369;28;20044;-83
2023/01/23 01:47:27;;;;;;;12.25;6.45;;;3.40;99.90;;;;;;5060498;28;20146;-81
2023/01/23 01:49:57;;;;;;;16.75;6.50;;;3.40;99.90;;;;;;5093603;28;20499;-84
2023/01/23 01:52:24;;;;;;;14.30;6.97;;;3.30;99.90;;;;;;5077087;28;20425;-81
2023/01/23 01:54:57;;;;;;;10.10;6.47;;;3.30;99.90;;;;;;5093456;28;20051;-81
2023/01/23 01:57:25;;;;;;;13.10;6.28;;;3.30;99.90;;;;;;5093774;28;20044;-81
2023/01/23 02:00:07;;;;;;;12.60;6.65;;;3.30;99.90;;;;;;5093731;28;20044;-81
2023/01/23 02:02:50;;;;;;;14.95;7.32;;;3.40;99.90;;;;;;5076912;28;20040;-81
2023/01/23 02:05:21;;;;;;;12.18;6.40;;;3.40;99.90;;;;;;5093399;28;20056;-81
2023/01/23 02:08:14;;;;;;;18.52;7.65;;;3.30;99.90;;;;;;5093809;28;20389;-81
2023/01/23 02:10:42;;;;;;;16.13;6.93;;;3.40;99.90;;;;;;5076834;28;20070;-81
2023/01/23 02:13:21;;;;;;;15.60;6.75;;;3.30;99.90;;;;;;5093230;28;20051;-81
2023/01/23 02:15:48;;;;;;;11.57;6.57;;;3.30;99.90;;;;;;5092983;28;20092;-80
2023/01/23 02:18:14;;;;;;;14.55;6.30;;;3.30;99.90;;;;;;5093030;28;20048;-81
2023/01/23 02:20:40;;;;;;;10.95;6.40;;;3.30;99.90;;;;;;5076218;28;20468;-81
2023/01/23 02:23:20;;;;;;;15.43;6.77;;;3.30;99.90;;;;;;5092839;28;20040;-81
2023/01/23 02:25:54;;;;;;;16.38;6.72;;;3.30;99.90;;;;;;5092561;28;20060;-81
2023/01/23 02:28:20;;;;;;;15.40;6.95;;;3.30;99.90;;;;;;5076031;28;20047;-81
2023/01/23 02:30:45;;;;;;;16.70;7.30;;;3.30;99.90;;;;;;5076117;28;20047;-81
2023/01/23 02:33:23;;;;;;;11.00;6.40;;;3.30;99.90;;;;;;5092697;28;20044;-81
2023/01/23 02:35:49;;;;;;;14.50;7.57;;;3.30;99.90;;;;;;5092983;28;20058;-81
2023/01/23 02:38:19;;;;;;;10.48;6.15;;;3.30;99.90;;;;;;5075775;28;20048;-81
2023/01/23 02:40:45;;;;;;;13.95;6.30;;;3.30;99.90;;;;;;5093002;28;20047;-81
2023/01/23 02:43:20;;;;;;;13.50;6.43;;;3.30;99.90;;;;;;5092509;28;20040;-81
2023/01/23 02:45:46;;;;;;;16.67;6.53;;;3.30;99.90;;;;;;5076193;28;20434;-81
2023/01/23 02:48:12;;;;;;;13.25;6.70;;;3.30;99.90;;;;;;5075536;28;20396;-81
2023/01/23 02:50:37;;;;;;;15.63;7.03;;;3.30;99.90;;;;;;5092780;28;20101;-81
2023/01/23 02:53:05;;;;;;;14.23;7.00;;;3.30;99.90;;;;;;5075557;28;20051;-81
2023/01/23 02:55:36;;;;;;;14.15;6.85;;;3.30;99.90;;;;;;5109154;28;20506;-81
2023/01/23 03:00:46;;;;;;;13.30;7.03;;;3.30;99.90;;;;;;5092500;28;20488;-81
2023/01/23 03:03:12;;;;;;;16.60;6.60;;;3.30;99.90;;;;;;5075325;28;20467;-80
2023/01/23 03:05:38;;;;;;;15.03;7.50;;;3.40;99.90;;;;;;5092743;28;20131;-81
2023/01/23 03:08:04;;;;;;;11.73;6.73;;;3.30;99.90;;;;;;5075402;28;20055;-81
2023/01/23 03:10:30;;;;;;;14.15;6.57;;;3.30;99.90;;;;;;5075152;28;20083;-81
2023/01/23 03:13:02;;;;;;;14.63;6.70;;;3.30;99.90;;;;;;5092415;28;20444;-81
2023/01/23 03:15:29;;;;;;;13.30;6.75;;;3.30;99.90;;;;;;5075397;28;20118;-81
2023/01/23 03:17:55;;;;;;;11.95;6.25;;;3.30;99.90;;;;;;5075405;28;20087;-81
2023/01/23 03:20:22;;;;;;;15.40;7.47;;;3.30;99.90;;;;;;5075233;28;20087;-81
2023/01/23 03:22:49;;;;;;;17.17;6.97;;;3.30;99.90;;;;;;5074785;28;20059;-81
2023/01/23 03:25:15;;;;;;;14.52;6.78;;;3.30;99.90;;;;;;5074353;28;20419;-81
2023/01/23 03:27:41;;;;;;;13.65;6.75;;;3.30;99.90;;;;;;5092091;28;20048;-81
2023/01/23 03:30:12;;;;;;;12.30;6.77;;;3.30;99.90;;;;;;5075008;28;20090;-82
2023/01/23 03:32:38;;;;;;;13.77;6.95;;;3.30;99.90;;;;;;5092513;28;20416;-81
2023/01/23 03:35:08;;;;;;;15.63;7.25;;;3.30;99.90;;;;;;5091930;28;20395;-81
2023/01/23 03:37:34;;;;;;;12.60;6.75;;;3.30;99.90;;;;;;5093360;28;20048;-80
2023/01/23 03:42:45;;;;;;;12.45;6.50;;;3.20;99.90;;;;;;5095068;28;20083;-80
2023/01/23 03:45:10;;;;;;;14.50;7.00;;;3.30;99.90;;;;;;5074707;28;20437;-81
2023/01/23 03:47:36;;;;;;;13.67;7.17;;;3.30;99.90;;;;;;5075193;28;20036;-80
2023/01/23 03:50:02;;;;;;;13.37;6.73;;;3.30;99.90;;;;;;5108956;28;20044;-81
2023/01/23 03:52:28;;;;;;;13.03;7.00;;;3.20;99.90;;;;;;5091487;28;20055;-81
2023/01/23 03:54:53;;;;;;;12.70;7.00;;;3.20;99.90;;;;;;5075301;28;20058;-80
2023/01/23 03:57:20;;;;;;;14.30;7.00;;;3.20;99.90;;;;;;5074894;28;20036;-80
2023/01/23 03:59:45;;;;;;;13.10;6.88;;;3.20;99.90;;;;;;5091895;28;20094;-80
2023/01/23 04:02:11;;;;;;;15.53;7.37;;;3.20;99.90;;;;;;5074485;28;20048;-81
2023/01/23 04:04:37;;;;;;;15.77;7.00;;;3.20;99.90;;;;;;5091638;28;20048;-80
2023/01/23 04:07:05;;;;;;;15.23;7.57;;;3.20;99.90;;;;;;5075078;28;20044;-80
2023/01/23 04:09:30;;;;;;;14.32;6.55;;;3.20;99.90;;;;;;5091569;28;20050;-80
2023/01/23 04:11:58;;;;;;;13.50;6.67;;;3.10;99.90;;;;;;5091795;28;20131;-81
2023/01/23 04:14:25;;;;;;;16.73;7.53;;;3.20;99.90;;;;;;5091524;28;20293;-80
2023/01/23 04:16:52;;;;;;;12.98;6.65;;;3.10;99.90;;;;;;5091723;28;20495;-80
2023/01/23 04:19:18;;;;;;;15.30;7.43;;;3.10;99.90;;;;;;5091445;28;20071;-80
2023/01/23 04:21:48;;;;;;;14.55;8.15;;;3.10;99.90;;;;;;5092310;28;20099;-80
2023/01/23 04:24:15;;;;;;;15.48;8.10;;;3.10;99.90;;;;;;5094869;28;20059;-80
2023/01/23 04:26:40;;;;;;;12.27;7.95;;;3.10;99.90;;;;;;5078765;28;20055;-80
2023/01/23 04:29:06;;;;;;;16.03;7.93;;;3.10;99.90;;;;;;5078556;28;20048;-80
2023/01/23 04:31:32;;;;;;;13.47;7.00;;;3.10;99.90;;;;;;5095091;28;20052;-80
2023/01/23 04:33:58;;;;;;;14.93;7.40;;;3.10;99.90;;;;;;5095442;28;20396;-80
2023/01/23 04:36:23;;;;;;;20.20;8.03;;;3.10;99.90;;;;;;5094873;28;20047;-80
2023/01/23 04:38:49;;;;;;;13.20;8.20;;;3.10;99.90;;;;;;5095320;28;20137;-80
2023/01/23 04:41:27;;;;;;;14.67;7.33;;;3.10;99.90;;;;;;5094908;28;20047;-81
2023/01/23 04:43:53;;;;;;;11.48;8.00;;;3.10;99.90;;;;;;5095091;28;20047;-80
2023/01/23 04:46:19;;;;;;;17.37;8.73;;;3.10;99.90;;;;;;5095849;28;20036;-80
2023/01/23 04:48:44;;;;;;;18.03;8.63;;;3.10;99.90;;;;;;5078344;28;20044;-79
2023/01/23 04:51:11;;;;;;;16.87;8.73;;;3.10;99.90;;;;;;5078230;28;20044;-80
2023/01/23 04:53:37;;;;;;;16.50;8.57;;;3.10;99.90;;;;;;5094824;28;20051;-80
2023/01/23 04:56:03;;;;;;;15.80;8.77;;;3.10;99.90;;;;;;5078091;28;20510;-80
2023/01/23 04:58:29;;;;;;;15.13;8.25;;;3.10;99.90;;;;;;5094245;28;20046;-80
2023/01/23 05:01:02;;;;;;;16.38;8.63;;;3.10;99.90;;;;;;5094682;28;20365;-80
2023/01/23 05:03:27;;;;;;;19.88;8.95;;;3.10;99.90;;;;;;5094535;28;20047;-80
2023/01/23 05:05:53;;;;;;;16.90;8.37;;;3.20;99.90;;;;;;5077915;28;20126;-81
2023/01/23 05:08:19;;;;;;;14.60;8.33;;;3.20;99.90;;;;;;5094510;28;20383;-81
2023/01/23 05:10:44;;;;;;;17.83;9.60;;;3.20;99.90;;;;;;5094675;28;20052;-80
2023/01/23 05:13:10;;;;;;;16.43;8.90;;;3.20;99.90;;;;;;5077743;28;20040;-80
2023/01/23 05:15:36;;;;;;;14.67;8.37;;;3.10;99.90;;;;;;5044185;28;20396;-80
2023/01/23 05:18:02;;;;;;;15.40;8.37;;;3.10;99.90;;;;;;5094585;28;20040;-80
2023/01/23 05:20:28;;;;;;;15.93;8.75;;;3.10;99.90;;;;;;5094129;28;20484;-81
2023/01/23 05:22:53;;;;;;;14.77;8.77;;;3.10;99.90;;;;;;5094105;28;20123;-80
2023/01/23 05:25:25;;;;;;;14.90;9.03;;;3.10;99.90;;;;;;5093425;28;20189;-81
2023/01/23 05:27:52;;;;;;;15.13;9.05;;;3.10;99.90;;;;;;5094034;28;20100;-80
2023/01/23 05:30:20;;;;;;;15.38;8.93;;;3.10;99.90;;;;;;5094234;28;20044;-80
2023/01/23 05:32:46;;;;;;;19.10;9.35;;;3.10;99.90;;;;;;5093804;28;20480;-81
2023/01/23 05:35:14;;;;;;;15.57;9.35;;;3.10;99.90;;;;;;5094098;28;20051;-80
2023/01/23 05:37:40;;;;;;;16.67;10.35;;;3.00;99.90;;;;;;5093794;28;20469;-81
2023/01/23 05:40:09;;;;;;;16.33;10.07;;;3.10;99.90;;;;;;5094123;28;20058;-80
2023/01/23 05:42:34;;;;;;;18.20;9.52;;;3.10;99.90;;;;;;5093420;28;20126;-80
2023/01/23 05:45:00;;;;;;;16.90;9.73;;;3.10;99.90;;;;;;5094793;28;20130;-79
2023/01/23 05:47:26;;;;;;;20.90;10.97;;;3.10;99.90;;;;;;5094592;28;20044;-80
2023/01/23 05:49:53;;;;;;;18.35;9.75;;;3.10;99.90;;;;;;5093873;28;20046;-79
2023/01/23 05:52:20;;;;;;;18.63;10.18;;;3.10;99.90;;;;;;5094739;28;20052;-79
2023/01/23 05:54:46;;;;;;;18.17;10.10;;;3.10;99.90;;;;;;5094886;28;20051;-79
2023/01/23 05:57:12;;;;;;;16.70;10.45;;;3.10;99.90;;;;;;5094683;28;20087;-79
2023/01/23 05:59:38;;;;;;;21.47;10.50;;;3.10;99.90;;;;;;5094343;28;20095;-79
2023/01/23 06:02:03;;;;;;;15.27;10.33;;;3.10;99.90;;;;;;5093468;28;20039;-79
2023/01/23 06:04:29;;;;;;;17.80;11.30;;;3.00;99.90;;;;;;5076226;28;20543;-79
2023/01/23 06:06:55;;;;;;;19.37;10.80;;;3.10;99.90;;;;;;5094877;28;20058;-79
2023/01/23 06:09:21;;;;;;;16.53;10.67;;;3.10;99.90;;;;;;5094562;28;20052;-78
2023/01/23 06:11:46;;;;;;;18.27;10.93;;;3.00;99.90;;;;;;5110209;28;20433;-78
2023/01/23 06:14:12;;;;;;;18.77;10.17;;;3.10;99.90;;;;;;5110046;28;20101;-78
2023/01/23 06:16:38;;;;;;;20.60;10.57;;;3.00;99.90;;;;;;5094121;28;20092;-79
2023/01/23 06:19:04;;;;;;;16.03;9.97;;;3.00;99.90;;;;;;5110414;28;20044;-78
2023/01/23 06:21:30;;;;;;;18.33;10.57;;;3.00;99.90;;;;;;5094109;28;20055;-80
2023/01/23 06:23:58;;;;;;;18.27;10.57;;;3.00;99.90;;;;;;5094308;28;20040;-80
2023/01/23 06:26:24;;;;;;;20.08;10.20;;;3.00;99.90;;;;;;5093669;28;20048;-80
2023/01/23 06:28:50;;;;;;;16.57;10.30;;;3.00;99.90;;;;;;5092937;28;20043;-80
2023/01/23 06:31:15;;;;;;;17.57;10.33;;;3.10;99.90;;;;;;5075970;28;20135;-79
2023/01/23 06:33:41;;;;;;;19.93;10.63;;;3.00;99.90;;;;;;5092627;28;20078;-80
2023/01/23 06:36:07;;;;;;;24.77;11.30;;;3.00;99.90;;;;;;5109970;28;20096;-80
2023/01/23 06:38:33;;;;;;;20.88;11.10;;;3.00;99.90;;;;;;5093300;28;20048;-80
2023/01/23 06:40:59;;;;;;;16.83;10.53;;;3.00;99.90;;;;;;5094086;28;20122;-80
2023/01/23 06:43:25;;;;;;;19.50;10.97;;;3.00;99.90;;;;;;5093889;28;20040;-79
2023/01/23 06:45:51;;;;;;;16.80;10.75;;;3.00;99.90;;;;;;5108562;28;20472;-80
2023/01/23 06:48:17;;;;;;;19.30;11.03;;;3.00;99.90;;;;;;5093400;28;20127;-80
2023/01/23 06:50:43;;;;;;;19.40;10.90;;;3.00;99.90;;;;;;5075459;28;20091;-80
2023/01/23 06:53:13;;;;;;;20.08;11.02;;;3.00;99.90;;;;;;5092394;28;20052;-80
2023/01/23 06:55:39;;;;;;;20.98;10.88;;;3.10;99.90;;;;;;5092411;28;20077;-80
2023/01/23 06:58:05;;;;;;;18.40;10.82;;;3.00;99.90;;;;;;5092552;28;20130;-80
2023/01/23 07:00:33;;;;;;;18.65;11.43;;;3.10;99.90;;;;;;5075401;28;20048;-80
2023/01/23 07:03:02;;;;;;;17.63;11.50;;;3.00;99.90;;;;;;5092440;28;20044;-80
2023/01/23 07:05:29;;;;;;;16.40;11.32;;;3.10;99.90;;;;;;5076034;28;20514;-80
2023/01/23 07:07:55;;;;;;;21.23;12.00;;;3.10;99.90;;;;;;5092357;28;20046;-81
2023/01/23 07:10:22;;;;;;;18.17;11.07;;;3.10;99.90;;;;;;5092259;28;20480;-80
2023/01/23 07:12:49;;;;;;;19.95;11.77;;;3.00;99.90;;;;;;5093152;28;20083;-80
2023/01/23 07:15:15;;;;;;;18.73;11.60;;;3.10;99.90;;;;;;5092145;28;20078;-80
2023/01/23 07:17:41;;;;;;;18.88;11.80;;;3.10;99.90;;;;;;5075160;28;20464;-81
2023/01/23 07:20:07;;;;;;;18.50;11.17;;;3.10;99.90;;;;;;5092019;28;20048;-81
2023/01/23 07:22:33;;;;;;;18.90;11.55;;;3.10;99.90;;;;;;5092018;28;20139;-82
2023/01/23 07:24:59;;;;;;;22.63;11.97;;;3.20;99.90;;;;;;5075223;28;20536;-80
2023/01/23 07:27:24;;;;;;;18.30;11.70;;;3.10;99.90;;;;;;5074304;28;20059;-82
2023/01/23 07:29:50;;;;;;;20.67;11.77;;;3.10;99.90;;;;;;5100027;28;20483;-81
2023/01/23 07:32:16;;;;;;;17.37;13.07;;;3.10;99.90;;;;;;5092800;28;20468;-80
2023/01/23 07:34:42;;;;;;;20.60;13.07;;;3.10;99.90;;;;;;5091127;28;20438;-81
2023/01/23 07:37:07;;;;;;;19.50;11.10;;;3.10;99.90;;;;;;5091740;28;20278;-80
2023/01/23 07:39:33;;;;;;;18.43;12.77;;;3.10;99.90;;;;;;5108696;28;20408;-82
2023/01/23 07:41:59;;;;;;;19.00;12.50;;;3.10;99.90;;;;;;5075433;28;20084;-80
2023/01/23 07:44:25;;;;;;;19.40;12.50;;;3.10;99.90;;;;;;5091743;28;20055;-81
2023/01/23 07:46:51;;;;;;;17.07;11.27;;;3.10;99.90;;;;;;5075038;28;20048;-81
2023/01/23 07:49:16;;;;;;;18.00;12.40;;;3.20;99.90;;;;;;5075282;28;20392;-80
2023/01/23 07:51:42;;;;;;;27.77;13.60;;;3.10;99.90;;;;;;5091459;28;20478;-75
2023/01/23 07:54:09;;;;;;;19.10;12.20;;;3.10;99.90;;;;;;5093219;28;20044;-75
2023/01/23 07:56:34;;;;;;;19.65;12.52;;;3.10;99.90;;;;;;5094015;28;20054;-76
2023/01/23 07:59:00;;;;;;;17.60;12.73;;;3.10;99.90;;;;;;5097020;28;20040;-75
2023/01/23 08:01:26;;;;;;;19.50;12.07;;;3.10;99.90;;;;;;5097122;28;20093;-76
2023/01/23 08:03:52;;;;;;;18.03;11.80;;;3.10;99.90;;;;;;5096640;28;20113;-75
2023/01/23 08:06:18;;;;;;;19.33;12.13;;;3.20;99.90;;;;;;5096857;28;20134;-75
2023/01/23 08:08:47;;;;;;;17.83;11.67;;;3.10;99.90;;;;;;5096865;28;20127;-75
2023/01/23 08:11:13;;;;;;;19.67;11.90;;;3.20;99.90;;;;;;5096761;28;20419;-72
2023/01/23 08:13:39;;;;;;;19.73;12.65;;;3.20;99.90;;;;;;5095581;28;20036;-74
2023/01/23 08:16:06;;;;;;;16.43;12.03;;;3.20;99.90;;;;;;5097048;28;20391;-75
2023/01/23 08:18:32;;;;;;;18.77;11.95;;;3.20;99.90;;;;;;5096823;28;20629;-75
2023/01/23 08:21:00;;;;;;;17.92;12.23;;;3.20;99.90;;;;;;5096360;28;20137;-75
2023/01/23 08:23:29;;;;;;;18.13;12.02;;;3.10;99.90;;;;;;5096721;28;20178;-75
2023/01/23 08:25:57;;;;;;;16.33;12.00;;;3.20;99.90;;;;;;5096486;28;20051;-75
2023/01/23 08:28:23;;;;;;;18.80;11.82;;;3.20;99.90;;;;;;5096654;28;20131;-75
2023/01/23 08:30:50;;;;;;;21.02;11.52;;;3.20;99.90;;;;;;5096348;28;20468;-75
2023/01/23 08:33:17;;;;;;;18.58;11.93;;;3.20;99.90;;;;;;5096810;28;20040;-75
2023/01/23 08:35:56;;;;;;;15.75;10.93;;;3.20;99.90;;;;;;5095178;28;20055;-75
2023/01/23 08:38:23;;;;;;;21.25;11.98;;;3.30;99.90;;;;;;5096673;28;20044;-75
2023/01/23 08:40:51;;;;;;;16.70;11.55;;;3.30;99.90;;;;;;5095010;28;20395;-75
2023/01/23 08:43:18;;;;;;;19.75;11.85;;;3.20;99.90;;;;;;5096469;28;20435;-75
2023/01/23 08:45:50;;;;;;;20.60;11.57;;;3.20;99.90;;;;;;5095214;28;20078;-76
2023/01/23 08:48:16;;;;;;;17.83;10.73;;;3.30;99.90;;;;;;5096230;28;20039;-75
2023/01/23 08:50:42;;;;;;;19.58;11.30;;;3.30;99.90;;;;;;5096022;28;20502;-76
2023/01/23 08:53:08;;;;;;;15.13;10.63;;;3.20;99.90;;;;;;5096253;28;20130;-75
2023/01/23 08:55:35;;;;;;;16.90;11.02;;;3.20;99.90;;;;;;5096109;28;20482;-75
2023/01/23 08:58:01;;;;;;;20.17;10.63;;;3.30;99.90;;;;;;5095899;28;20052;-75
2023/01/23 09:00:27;;;;;;;17.38;11.07;;;3.20;99.90;;;;;;5096075;28;20101;-75
2023/01/23 09:02:53;;;;;;;18.20;11.27;;;3.30;99.90;;;;;;5094622;28;20052;-75
2023/01/23 09:05:19;;;;;;;16.07;10.40;;;3.30;99.90;;;;;;5095869;28;20043;-75
2023/01/23 09:07:45;;;;;;;15.13;10.20;;;3.30;99.90;;;;;;5094852;28;20043;-75
2023/01/23 09:10:11;;;;;;;18.40;11.10;;;3.30;99.90;;;;;;5095911;28;20056;-75
2023/01/23 09:12:38;;;;;;;15.73;10.10;;;3.30;99.90;;;;;;5061259;28;20044;-75
2023/01/23 09:15:04;;;;;;;15.35;10.38;;;3.30;99.90;;;;;;5095407;28;20048;-75
2023/01/23 09:17:30;;;;;;;16.13;10.10;;;3.30;99.90;;;;;;5095656;28;20048;-75
2023/01/23 09:19:59;;;;;;;15.47;10.70;;;3.30;99.90;;;;;;5095582;28;20055;-75
2023/01/23 09:22:25;;;;;;;18.17;10.25;;;3.40;99.90;;;;;;5095582;28;20048;-75
2023/01/23 09:24:51;;;;;;;18.23;10.67;;;3.40;99.90;;;;;;5095289;28;20074;-74
2023/01/23 09:27:17;;;;;;;15.30;10.23;;;3.40;99.90;;;;;;5094459;28;20634;-74
2023/01/23 09:29:43;;;;;;;14.18;9.48;;;3.40;99.90;;;;;;5095447;28;20043;-74
2023/01/23 09:32:09;;;;;;;12.20;9.17;;;3.40;99.90;;;;;;5095233;28;20109;-74
2023/01/23 09:34:34;;;;;;;15.63;9.63;;;3.40;99.90;;;;;;5094225;28;20087;-74
2023/01/23 09:37:00;;;;;;;12.13;9.07;;;3.50;99.90;;;;;;5095120;28;20059;-74
2023/01/23 09:39:26;;;;;;;14.30;8.80;;;3.50;99.90;;;;;;5093970;28;20128;-74
2023/01/23 09:41:52;;;;;;;13.07;9.87;;;3.50;99.90;;;;;;5095018;28;20048;-74
2023/01/23 09:44:21;;;;;;;14.00;9.50;;;3.40;99.90;;;;;;5093863;28;20040;-74
2023/01/23 09:47:03;;;;;;;14.93;9.45;;;3.50;99.90;;;;;;5094888;28;20040;-74
2023/01/23 09:49:57;;;;;;;14.63;9.00;;;3.50;99.90;;;;;;5095292;28;20083;-74
2023/01/23 09:52:48;;;;;;;14.38;8.80;;;3.50;99.90;;;;;;5095002;28;20044;-74
2023/01/23 09:55:39;;;;;;;13.02;8.63;;;3.50;99.90;;;;;;5095214;28;20427;-74
2023/01/23 09:58:16;;;;;;;16.42;8.90;;;3.50;99.90;;;;;;5094717;28;20055;-74
2023/01/23 10:00:41;;;;;;;12.38;8.05;;;3.60;99.90;;;;;;5094816;28;20048;-74
2023/01/23 10:03:14;;;;;;;12.23;8.93;;;3.60;99.90;;;;;;5093607;28;20685;-74
2023/01/23 10:06:07;;;;;;;13.88;8.05;;;3.60;99.90;;;;;;5094873;28;20047;-74
2023/01/23 10:09:03;;;;;;;12.02;7.80;;;3.60;99.90;;;;;;5094977;28;20087;-74
2023/01/23 10:11:50;;;;;;;11.23;7.70;;;3.60;99.90;;;;;;5094862;28;20127;-74
2023/01/23 10:15:11;;;;;;;12.82;7.78;;;3.60;99.90;;;;;;5094609;28;20119;-74
2023/01/23 10:17:51;;;;;;;12.15;7.05;;;3.60;99.90;;;;;;5051961;28;20110;-74
2023/01/23 10:20:35;;;;;;;11.52;6.95;;;3.70;99.90;;;;;;5051886;28;20117;-74
2023/01/23 10:23:30;;;;;;;13.18;6.95;;;3.70;99.90;;;;;;5085524;28;20407;-74
2023/01/23 10:25:58;;;;;;;10.68;6.95;;;3.70;99.90;;;;;;5094147;28;20133;-74
2023/01/23 10:28:37;;;;;;;11.45;7.30;;;3.70;99.90;;;;;;5093893;28;20575;-74
2023/01/23 10:31:11;;;;;;;10.10;7.15;;;3.80;99.90;;;;;;5094379;28;20082;-74
2023/01/23 10:33:45;;;;;;;12.13;6.97;;;3.80;99.90;;;;;;5094095;28;20083;-74
2023/01/23 10:36:27;;;;;;;13.02;6.97;;;3.80;99.90;;;;;;5093990;28;20054;-74
2023/01/23 10:39:11;;;;;;;11.05;6.68;;;3.80;99.90;;;;;;5093879;28;20131;-74
2023/01/23 10:41:38;;;;;;;10.32;6.22;;;3.90;99.90;;;;;;5094081;28;20043;-74
2023/01/23 10:44:15;;;;;;;10.77;6.80;;;3.90;99.90;;;;;;5092622;28;20059;-74
2023/01/23 10:46:55;;;;;;;10.07;6.82;;;3.90;99.90;;;;;;5094208;28;20051;-74
2023/01/23 10:49:38;;;;;;;10.45;5.78;;;3.90;99.90;;;;;;5094308;28;20054;-74
2023/01/23 10:52:24;;;;;;;9.25;6.75;;;3.90;99.90;;;;;;5092565;28;20052;-74
2023/01/23 10:54:50;;;;;;;12.32;6.55;;;4.00;99.90;;;;;;5093416;28;20044;-74
2023/01/23 10:57:23;;;;;;;10.83;6.73;;;4.00;99.90;;;;;;5093639;28;20048;-74
2023/01/23 10:59:57;;;;;;;10.10;6.57;;;4.10;99.90;;;;;;5093971;28;20126;-74
2023/01/23 11:02:31;;;;;;;8.02;5.40;;;4.10;99.90;;;;;;5094078;28;20083;-74
2023/01/23 11:04:58;;;;;;;7.85;4.90;;;4.20;99.90;;;;;;5093622;28;20469;-74
2023/01/23 11:07:29;;;;;;;6.95;4.75;;;4.10;99.90;;;;;;5093557;28;20059;-74
2023/01/23 11:10:03;;;;;;;9.25;5.50;;;4.20;99.90;;;;;;5093765;28;20467;-76
2023/01/23 11:12:32;;;;;;;8.88;4.68;;;4.20;99.90;;;;;;5093585;28;20052;-74
2023/01/23 11:15:20;;;;;;;7.78;5.22;;;4.20;99.90;;;;;;5093235;28;20044;-75
2023/01/23 11:17:47;;;;;;;9.13;5.13;;;4.20;99.90;;;;;;5093502;28;20044;-74
2023/01/23 11:20:41;;;;;;;8.98;6.13;;;4.30;99.90;;;;;;5093279;28;20055;-74
2023/01/23 11:23:07;;;;;;;7.68;4.63;;;4.30;99.90;;;;;;5093363;28;20098;-74
2023/01/23 11:25:36;;;;;;;7.57;4.53;;;4.40;99.90;;;;;;5093578;28;20052;-74
2023/01/23 11:28:19;;;;;;;7.10;4.05;;;4.40;99.90;;;;;;5093167;28;20056;-74
2023/01/23 11:30:48;;;;;;;6.53;2.72;;;4.40;99.90;;;;;;5093155;28;20414;-74
2023/01/23 11:33:35;;;;;;;4.25;2.45;;;4.40;99.90;;;;;;5091858;28;20101;-74
2023/01/23 11:36:16;;;;;;;5.03;2.97;;;4.40;99.90;;;;;;5093131;28;20040;-74
2023/01/23 11:38:48;;;;;;;4.78;2.80;;;4.40;99.90;;;;;;5092281;28;20121;-74
2023/01/23 11:41:14;;;;;;;3.90;1.83;;;4.40;99.90;;;;;;5093008;28;20136;-74
2023/01/23 11:43:40;;;;;;;4.73;1.57;;;4.40;99.90;;;;;;5093275;28;20082;-74
2023/01/23 11:46:38;;;;;;;5.80;2.90;;;4.40;99.90;;;;;;5092987;28;20044;-74
2023/01/23 11:49:45;;;;;;;4.47;2.25;;;4.40;99.90;;;;;;5089538;28;20412;-74
2023/01/23 11:52:26;;;;;;;4.88;2.60;;;4.40;99.90;;;;;;5071761;28;20539;-74
2023/01/23 11:55:11;;;;;;;4.25;2.78;;;4.40;99.90;;;;;;5091907;28;20089;-74
2023/01/23 11:57:51;;;;;;;5.10;2.53;;;4.40;99.90;;;;;;5093041;28;20070;-74
2023/01/23 12:00:32;;;;;;;4.22;2.47;;;4.40;99.90;;;;;;5092014;28;20080;-74
2023/01/23 12:03:23;;;;;;;5.65;2.60;;;4.40;99.90;;;;;;5092985;28;20139;-74
2023/01/23 12:06:01;;;;;;;6.60;3.47;;;4.40;99.90;;;;;;5093028;28;20369;-74
2023/01/23 12:08:30;;;;;;;5.72;3.35;;;4.40;99.90;;;;;;5093059;28;20083;-74
2023/01/23 12:11:11;;;;;;;5.25;3.10;;;4.40;99.90;;;;;;5092821;28;20048;-74
2023/01/23 12:13:55;;;;;;;5.10;3.00;;;4.40;99.90;;;;;;5093002;28;20052;-74
2023/01/23 12:16:47;;;;;;;5.40;3.00;;;4.40;99.90;;;;;;5092840;28;20051;-74
2023/01/23 12:19:37;;;;;;;6.43;3.25;;;4.30;99.90;;;;;;5091823;28;20506;-74
2023/01/23 12:22:20;;;;;;;6.32;3.65;;;4.40;99.90;;;;;;5092981;28;20058;-74
2023/01/23 12:25:09;;;;;;;6.63;3.97;;;4.40;99.90;;;;;;5092749;28;20055;-74
2023/01/23 12:27:46;;;;;;;6.57;4.13;;;4.30;99.90;;;;;;5093003;28;20055;-74
2023/01/23 12:30:41;;;;;;;7.43;4.32;;;4.30;99.90;;;;;;5092778;28;20118;-74
2023/01/23 12:33:31;;;;;;;6.07;4.10;;;4.30;99.90;;;;;;5054821;28;20041;-75
2023/01/23 12:36:21;;;;;;;7.43;3.80;;;4.30;99.90;;;;;;5092772;28;20080;-74
2023/01/23 12:39:01;;;;;;;7.05;4.60;;;4.30;99.90;;;;;;5092688;28;20043;-74
2023/01/23 12:41:39;;;;;;;5.60;3.97;;;4.30;99.90;;;;;;5092882;28;20379;-74
2023/01/23 12:44:14;;;;;;;7.65;3.72;;;4.30;99.90;;;;;;5095179;28;20047;-74
2023/01/23 12:46:45;;;;;;;7.88;4.85;;;4.30;99.90;;;;;;5096627;28;20411;-74
2023/01/23 12:49:20;;;;;;;8.27;5.25;;;4.30;99.90;;;;;;5096133;28;20036;-74
2023/01/23 12:51:52;;;;;;;7.43;5.05;;;4.30;99.90;;;;;;5095465;28;20093;-74
2023/01/23 12:54:44;;;;;;;9.50;4.75;;;4.30;99.90;;;;;;5096130;28;20414;-74
2023/01/23 12:57:12;;;;;;;5.40;4.03;;;4.20;99.90;;;;;;5095253;28;20125;-74
2023/01/23 13:00:00;;;;;;;8.18;4.60;;;4.20;99.90;;;;;;5096153;28;20079;-74
2023/01/23 13:03:06;;;;;;;7.45;3.90;;;4.20;99.90;;;;;;5095871;28;20040;-74
2023/01/23 13:05:41;;;;;;;8.77;5.03;;;4.20;99.90;;;;;;5083801;28;20048;-74
2023/01/23 13:08:20;;;;;;;6.30;3.95;;;4.20;99.90;;;;;;5096153;28;20044;-74